createdAt,value
2023-01-25T00:01:08.647Z,166.72
2023-01-25T00:04:14.926Z,157.62
2023-01-25T00:07:22.028Z,143.32
2023-01-25T00:10:30.783Z,147.92
2023-01-25T00:13:37.704Z,148.75
2023-01-25T00:16:44.920Z,151.58
2023-01-25T00:19:51.877Z,165.98
2023-01-25T00:22:57.952Z,159.49
2023-01-25T00:26:07.933Z,174.97
2023-01-25T00:29:16.964Z,158.33
2023-01-25T00:32:51.175Z,133.04
2023-01-25T00:36:00.328Z,115.47
2023-01-25T00:39:08.807Z,117.82
2023-01-25T00:42:19.651Z,124.27
2023-01-25T00:45:26.675Z,126.72
2023-01-25T00:48:34.129Z,116.69
2023-01-25T00:51:41.133Z,118.02
2023-01-25T00:54:47.627Z,109.38
2023-01-25T00:57:57.182Z,123.87
2023-01-25T01:01:03.371Z,116.54
2023-01-25T01:04:10.631Z,99.61
2023-01-25T01:07:20.088Z,93.57
2023-01-25T01:10:27.020Z,92.66
2023-01-25T01:13:36.621Z,95.48
2023-01-25T01:16:44.620Z,94.12
2023-01-25T01:19:51.092Z,91.61
2023-01-25T01:22:58.378Z,92.90
2023-01-25T01:26:05.158Z,86.22
2023-01-25T01:29:16.754Z,79.79
2023-01-25T01:32:22.935Z,80.87
2023-01-25T01:35:33.121Z,77.96
2023-01-25T01:38:39.611Z,79.97
2023-01-25T01:41:46.761Z,67.85
2023-01-25T01:44:57.464Z,73.88
2023-01-25T01:48:08.838Z,87.97
2023-01-25T01:51:25.654Z,94.73
2023-01-25T01:54:39.770Z,89.37
2023-01-25T01:57:55.495Z,86.47
2023-01-25T02:01:05.594Z,94.65
2023-01-25T02:04:13.770Z,86.53
2023-01-25T02:07:30.589Z,88.31
2023-01-25T02:10:40.333Z,81.10
2023-01-25T02:13:47.710Z,75.35
2023-01-25T02:16:57.709Z,68.08
2023-01-25T02:20:15.913Z,60.72
2023-01-25T02:23:32.897Z,60.32
2023-01-25T02:26:42.931Z,54.37
2023-01-25T02:29:50.694Z,57.68
2023-01-25T02:32:57.839Z,59.17
2023-01-25T02:36:24.684Z,56.30
2023-01-25T02:39:32.942Z,62.98
2023-01-25T02:42:46.890Z,67.18
2023-01-25T02:46:06.748Z,64.89
2023-01-25T02:49:14.206Z,88.51
2023-01-25T02:52:21.647Z,83.48
2023-01-25T02:55:27.815Z,92.02
2023-01-25T02:58:37.613Z,87.33
2023-01-25T03:01:46.567Z,78.48
2023-01-25T03:04:54.170Z,73.09
2023-01-25T03:08:00.356Z,70.47
2023-01-25T03:11:10.779Z,68.64
2023-01-25T03:14:20.323Z,66.50
2023-01-25T03:17:27.503Z,61.95
2023-01-25T03:20:33.754Z,60.85
2023-01-25T03:23:41.155Z,61.86
2023-01-25T03:27:03.989Z,66.38
2023-01-25T03:30:25.066Z,69.50
2023-01-25T03:33:32.564Z,69.32
2023-01-25T03:36:39.776Z,72.64
2023-01-25T03:39:46.224Z,76.05
2023-01-25T03:42:53.905Z,75.47
2023-01-25T03:46:05.250Z,70.81
2023-01-25T03:49:14.046Z,69.47
2023-01-25T03:52:20.647Z,72.94
2023-01-25T03:55:28.533Z,82.54
2023-01-25T03:58:35.132Z,88.26
2023-01-25T04:01:45.143Z,94.61
2023-01-25T04:04:51.570Z,82.56
2023-01-25T04:08:01.115Z,95.97
2023-01-25T04:11:14.969Z,115.28
2023-01-25T04:14:42.534Z,138.47
2023-01-25T04:17:54.317Z,124.95
2023-01-25T04:21:04.723Z,121.90
2023-01-25T04:24:11.762Z,123.74
2023-01-25T04:27:20.779Z,141.70
2023-01-25T04:30:39.340Z,193.95
2023-01-25T04:33:50.706Z,254.47
2023-01-25T04:36:59.148Z,276.06
2023-01-25T04:40:13.641Z,198.25
2023-01-25T04:43:26.446Z,101.45
2023-01-25T04:46:38.369Z,90.51
2023-01-25T04:49:48.107Z,99.45
2023-01-25T04:52:58.516Z,95.42
2023-01-25T04:56:06.158Z,88.31
2023-01-25T04:59:21.133Z,82.40
2023-01-25T05:02:27.695Z,83.86
2023-01-25T05:05:37.325Z,82.12
2023-01-25T05:08:49.660Z,80.97
2023-01-25T05:11:56.865Z,98.76
2023-01-25T05:15:09.934Z,101.54
2023-01-25T05:18:17.330Z,90.94
2023-01-25T05:21:38.638Z,94.97
2023-01-25T05:24:47.541Z,93.96
2023-01-25T05:27:55.847Z,77.45
2023-01-25T05:31:28.824Z,84.31
2023-01-25T05:34:36.392Z,88.94
2023-01-25T05:37:45.982Z,80.30
2023-01-25T05:41:02.377Z,79.69
2023-01-25T05:44:09.519Z,93.33
2023-01-25T05:47:23.485Z,83.64
2023-01-25T05:50:31.477Z,91.46
2023-01-25T05:53:45.234Z,110.40
2023-01-25T05:56:53.425Z,146.62
2023-01-25T05:59:59.699Z,142.14
2023-01-25T06:03:07.170Z,105.02
2023-01-25T06:06:15.520Z,137.85
2023-01-25T06:09:27.290Z,150.44
2023-01-25T06:12:34.093Z,194.20
2023-01-25T06:15:41.514Z,191.46
2023-01-25T06:19:09.187Z,261.02
2023-01-25T06:22:25.759Z,121.66
2023-01-25T06:25:34.407Z,185.03
2023-01-25T06:28:42.364Z,173.10
2023-01-25T06:31:48.356Z,236.73
2023-01-25T06:34:55.232Z,237.26
2023-01-25T06:38:04.518Z,301.13
2023-01-25T06:41:15.258Z,437.80
2023-01-25T06:44:21.346Z,335.59
2023-01-25T06:47:28.308Z,217.80
2023-01-25T06:50:34.516Z,202.24
2023-01-25T06:53:44.203Z,131.97
2023-01-25T06:56:52.972Z,113.27
2023-01-25T07:00:00.155Z,113.43
2023-01-25T07:03:06.403Z,118.34
2023-01-25T07:06:14.942Z,117.67
2023-01-25T07:09:24.296Z,130.42
2023-01-25T07:12:35.108Z,135.30
2023-01-25T07:15:41.145Z,125.94
2023-01-25T07:18:49.023Z,123.81
2023-01-25T07:21:55.390Z,125.68
2023-01-25T07:25:02.517Z,133.29
2023-01-25T07:28:11.426Z,135.24
2023-01-25T07:31:20.287Z,150.58
2023-01-25T07:34:26.805Z,185.12
2023-01-25T07:37:34.671Z,190.82
2023-01-25T07:40:40.798Z,197.96
2023-01-25T07:43:50.447Z,191.93
2023-01-25T07:47:08.048Z,214.53
2023-01-25T07:50:16.421Z,261.88
2023-01-25T07:53:22.573Z,278.08
2023-01-25T07:56:32.588Z,223.16
2023-01-25T07:59:41.409Z,223.54
2023-01-25T08:02:48.463Z,227.17
2023-01-25T08:05:55.386Z,240.27
2023-01-25T08:09:03.592Z,236.50
2023-01-25T08:12:11.145Z,248.19
2023-01-25T08:15:20.824Z,264.29
2023-01-25T08:18:27.092Z,248.14
2023-01-25T08:21:38.076Z,226.80
2023-01-25T08:24:44.935Z,207.29
2023-01-25T08:27:52.455Z,214.71
2023-01-25T08:31:09.930Z,222.16
2023-01-25T08:34:18.069Z,236.58
2023-01-25T08:37:24.307Z,266.03
2023-01-25T08:40:31.412Z,259.77
2023-01-25T08:43:38.674Z,247.93
2023-01-25T08:46:48.257Z,246.50
2023-01-25T08:49:55.655Z,225.89
2023-01-25T08:53:02.603Z,220.69
2023-01-25T08:56:11.346Z,210.25
2023-01-25T08:59:18.197Z,192.08
2023-01-25T09:02:26.985Z,177.80
2023-01-25T09:05:33.969Z,175.81
2023-01-25T09:08:41.364Z,164.74
2023-01-25T09:11:48.446Z,180.36
2023-01-25T09:14:54.460Z,205.47
2023-01-25T09:18:04.138Z,198.24
2023-01-25T09:21:12.166Z,166.41
2023-01-25T09:24:19.064Z,173.86
2023-01-25T09:27:25.210Z,144.40
2023-01-25T09:30:45.518Z,106.47
2023-01-25T09:34:04.915Z,112.74
2023-01-25T09:37:11.947Z,122.94
2023-01-25T09:40:27.032Z,178.15
2023-01-25T09:44:07.442Z,191.46
2023-01-25T09:47:32.387Z,160.67
2023-01-25T09:51:18.823Z,169.03
2023-01-25T09:54:31.675Z,177.39
2023-01-25T09:57:44.227Z,190.00
2023-01-25T10:00:55.834Z,201.16
2023-01-25T10:04:13.760Z,214.01
2023-01-25T10:07:30.888Z,181.02
2023-01-25T10:10:43.168Z,215.79
2023-01-25T10:13:49.749Z,225.82
2023-01-25T10:17:11.863Z,191.15
2023-01-25T10:20:34.852Z,185.69
2023-01-25T10:24:21.484Z,155.02
2023-01-25T10:27:47.491Z,133.19
2023-01-25T10:31:03.882Z,168.89
2023-01-25T10:34:23.325Z,141.97
2023-01-25T10:37:35.697Z,121.57
2023-01-25T10:40:54.000Z,128.43
2023-01-25T10:44:13.506Z,141.05
2023-01-25T10:47:30.056Z,146.69
2023-01-25T10:50:51.632Z,144.35
2023-01-25T10:54:05.924Z,117.71
2023-01-25T10:57:22.382Z,119.60
2023-01-25T11:00:33.156Z,118.10
2023-01-25T11:03:44.997Z,123.45
2023-01-25T11:06:53.584Z,120.17
2023-01-25T11:10:00.727Z,118.83
2023-01-25T11:13:25.299Z,143.30
2023-01-25T11:16:42.114Z,157.00
2023-01-25T11:19:48.395Z,141.62
2023-01-25T11:22:58.444Z,125.99
2023-01-25T11:26:23.438Z,128.96
2023-01-25T11:29:32.972Z,134.05
2023-01-25T11:32:42.229Z,131.44
2023-01-25T11:36:33.132Z,131.47
2023-01-25T11:40:07.059Z,113.03
2023-01-25T11:43:44.589Z,105.39
2023-01-25T11:47:16.104Z,127.45
2023-01-25T11:50:39.160Z,153.56
2023-01-25T11:54:21.373Z,166.42
2023-01-25T11:57:54.066Z,172.68
2023-01-25T12:01:20.618Z,144.82
2023-01-25T12:05:21.609Z,143.72
2023-01-25T12:09:13.722Z,112.34
2023-01-25T12:12:45.778Z,68.31
2023-01-25T12:16:26.372Z,75.64
2023-01-25T12:19:57.499Z,87.92
2023-01-25T12:23:46.801Z,86.44
2023-01-25T12:27:10.803Z,100.35
2023-01-25T12:30:30.256Z,99.18
2023-01-25T12:33:46.078Z,99.31
2023-01-25T12:36:54.334Z,99.28
2023-01-25T12:40:14.504Z,97.85
2023-01-25T12:43:31.476Z,94.90
2023-01-25T12:46:52.555Z,94.75
2023-01-25T12:50:08.362Z,105.34
2023-01-25T12:53:24.906Z,124.94
2023-01-25T12:56:45.986Z,144.55
2023-01-25T13:00:10.741Z,144.92
2023-01-25T13:03:37.857Z,122.15
2023-01-25T13:06:57.926Z,119.54
2023-01-25T13:10:19.747Z,130.33
2023-01-25T13:13:33.524Z,154.01
2023-01-25T13:16:53.897Z,150.89
2023-01-25T13:20:06.641Z,142.08
2023-01-25T13:23:44.075Z,147.73
2023-01-25T13:27:04.421Z,156.13
2023-01-25T13:30:36.622Z,145.38
2023-01-25T13:33:44.323Z,134.92
2023-01-25T13:36:52.360Z,138.95
2023-01-25T13:40:09.681Z,119.25
2023-01-25T13:43:24.933Z,117.73
2023-01-25T13:46:34.679Z,127.06
2023-01-25T13:49:50.579Z,132.83
2023-01-25T13:53:02.319Z,137.80
2023-01-25T13:56:24.277Z,126.31
2023-01-25T13:59:32.156Z,133.12
2023-01-25T14:02:46.300Z,162.90
2023-01-25T14:05:58.773Z,181.70
2023-01-25T14:09:16.893Z,159.31
2023-01-25T14:12:39.354Z,163.43
2023-01-25T14:15:59.315Z,142.75
2023-01-25T14:19:31.527Z,146.08
2023-01-25T14:22:37.585Z,169.23
2023-01-25T14:25:44.770Z,155.77
2023-01-25T14:29:01.128Z,143.42
2023-01-25T14:32:09.807Z,157.92
2023-01-25T14:35:53.713Z,177.55
2023-01-25T14:39:04.476Z,161.92
2023-01-25T14:42:12.121Z,167.50
2023-01-25T14:45:20.951Z,154.31
2023-01-25T14:48:45.386Z,140.16
2023-01-25T14:52:05.727Z,150.20
2023-01-25T14:55:13.101Z,147.15
2023-01-25T14:58:25.897Z,148.95
2023-01-25T15:01:40.304Z,161.52
2023-01-25T15:05:04.912Z,150.67
2023-01-25T15:08:32.762Z,141.59
2023-01-25T15:11:50.135Z,127.12
2023-01-25T15:15:00.267Z,129.32
2023-01-25T15:18:07.875Z,132.25
2023-01-25T15:21:16.333Z,136.10
2023-01-25T15:24:26.613Z,144.05
2023-01-25T15:27:32.998Z,146.82
2023-01-25T15:30:40.095Z,143.75
2023-01-25T15:33:46.250Z,165.49
2023-01-25T15:36:53.288Z,174.42
2023-01-25T15:40:02.031Z,208.00
2023-01-25T15:43:09.160Z,289.67
2023-01-25T15:46:22.618Z,253.93
2023-01-25T15:49:33.440Z,268.83
2023-01-25T15:52:39.618Z,206.29
2023-01-25T15:55:55.736Z,198.27
2023-01-25T15:59:08.552Z,171.04
2023-01-25T16:02:19.836Z,182.52
2023-01-25T16:05:26.077Z,178.56
2023-01-25T16:08:37.298Z,192.07
2023-01-25T16:11:46.933Z,203.57
2023-01-25T16:14:53.901Z,340.16
2023-01-25T16:18:00.080Z,301.86
2023-01-25T16:21:07.488Z,211.03
2023-01-25T16:24:14.847Z,186.43
2023-01-25T16:27:25.906Z,174.75
2023-01-25T16:30:34.434Z,217.25
2023-01-25T16:33:41.380Z,300.74
2023-01-25T16:36:50.690Z,257.59
2023-01-25T16:39:57.824Z,276.67
2023-01-25T16:43:07.310Z,488.57
2023-01-25T16:46:21.133Z,310.59
2023-01-25T16:49:30.800Z,302.43
2023-01-25T16:52:37.728Z,812.73
2023-01-25T16:55:43.873Z,1279.91
2023-01-25T16:58:56.615Z,924.22
2023-01-25T17:02:03.043Z,478.41
2023-01-25T17:05:12.154Z,387.65
2023-01-25T17:08:18.374Z,257.76
2023-01-25T17:11:25.480Z,251.51
2023-01-25T17:14:34.376Z,236.27
2023-01-25T17:17:41.385Z,221.02
2023-01-25T17:20:47.526Z,211.84
2023-01-25T17:23:55.571Z,211.51
2023-01-25T17:27:02.381Z,354.64
2023-01-25T17:30:14.374Z,337.64
2023-01-25T17:33:20.776Z,340.94
2023-01-25T17:36:27.811Z,308.83
2023-01-25T17:39:34.075Z,290.42
2023-01-25T17:42:41.008Z,300.82
2023-01-25T17:45:50.258Z,317.72
2023-01-25T17:48:58.272Z,305.95
2023-01-25T17:52:04.464Z,300.38
2023-01-25T17:55:12.725Z,265.29
2023-01-25T17:58:18.981Z,283.92
2023-01-25T18:01:32.293Z,299.59
2023-01-25T18:04:38.723Z,268.64
2023-01-25T18:07:46.879Z,236.80
2023-01-25T18:10:53.192Z,241.85
2023-01-25T18:14:03.277Z,242.33
2023-01-25T18:17:12.369Z,187.48
2023-01-25T18:20:20.212Z,200.23
2023-01-25T18:23:26.836Z,227.02
2023-01-25T18:26:38.349Z,211.22
2023-01-25T18:29:55.762Z,280.12
2023-01-25T18:33:05.807Z,320.36
2023-01-25T18:36:16.618Z,264.09
2023-01-25T18:39:23.677Z,197.35
2023-01-25T18:42:30.772Z,189.53
2023-01-25T18:45:37.937Z,206.43
2023-01-25T18:48:47.423Z,174.19
2023-01-25T18:52:10.456Z,172.16
2023-01-25T18:55:17.353Z,214.09
2023-01-25T18:58:24.512Z,237.88
2023-01-25T19:01:30.913Z,223.68
2023-01-25T19:04:40.625Z,191.07
2023-01-25T19:07:46.775Z,171.38
2023-01-25T19:10:53.741Z,193.81
2023-01-25T19:14:00.917Z,223.12
2023-01-25T19:17:08.609Z,187.16
2023-01-25T19:20:17.626Z,198.32
2023-01-25T19:23:24.548Z,229.72
2023-01-25T19:26:31.064Z,209.57
2023-01-25T19:29:38.100Z,175.36
2023-01-25T19:32:44.415Z,155.20
2023-01-25T19:36:04.541Z,143.11
2023-01-25T19:39:11.917Z,146.43
2023-01-25T19:42:19.214Z,166.21
2023-01-25T19:45:25.580Z,178.18
2023-01-25T19:48:34.912Z,181.88
2023-01-25T19:51:53.472Z,161.50
2023-01-25T19:55:02.927Z,153.78
2023-01-25T19:58:10.512Z,152.32
2023-01-25T20:01:21.454Z,141.80
2023-01-25T20:04:28.149Z,135.08
2023-01-25T20:07:37.890Z,135.01
2023-01-25T20:10:46.174Z,139.85
2023-01-25T20:13:58.697Z,127.22
2023-01-25T20:17:05.420Z,124.31
2023-01-25T20:20:16.809Z,122.01
2023-01-25T20:23:29.445Z,127.56
2023-01-25T20:26:39.985Z,115.06
2023-01-25T20:29:46.732Z,108.34
2023-01-25T20:32:53.845Z,112.46
2023-01-25T20:36:04.031Z,105.48
2023-01-25T20:39:17.781Z,126.42
2023-01-25T20:42:24.431Z,131.73
2023-01-25T20:45:31.665Z,137.05
2023-01-25T20:48:39.036Z,137.68
2023-01-25T20:51:46.905Z,139.37
2023-01-25T20:54:56.476Z,135.88
2023-01-25T20:58:03.582Z,130.36
2023-01-25T21:01:17.772Z,151.31
2023-01-25T21:04:24.971Z,166.53
2023-01-25T21:07:31.159Z,153.53
2023-01-25T21:10:40.727Z,150.40
2023-01-25T21:13:46.873Z,150.61
2023-01-25T21:16:53.841Z,168.25
2023-01-25T21:20:00.600Z,171.31
2023-01-25T21:23:07.770Z,179.02
2023-01-25T21:26:19.915Z,232.52
2023-01-25T21:29:26.901Z,242.26
2023-01-25T21:32:33.221Z,256.47
2023-01-25T21:35:42.435Z,265.72
2023-01-25T21:38:51.611Z,222.57
2023-01-25T21:42:01.272Z,227.06
2023-01-25T21:45:21.536Z,212.18
2023-01-25T21:48:40.939Z,212.67
2023-01-25T21:51:51.935Z,213.31
2023-01-25T21:54:58.936Z,204.36
2023-01-25T21:58:07.705Z,209.40
2023-01-25T22:01:14.678Z,218.04
2023-01-25T22:04:24.100Z,223.78
2023-01-25T22:07:33.519Z,227.13
2023-01-25T22:10:39.775Z,231.85
2023-01-25T22:13:49.425Z,238.38
2023-01-25T22:16:57.222Z,224.28
2023-01-25T22:20:04.199Z,228.42
2023-01-25T22:23:10.262Z,226.61
2023-01-25T22:26:20.003Z,234.79
2023-01-25T22:29:30.081Z,233.85
2023-01-25T22:32:37.004Z,250.76
2023-01-25T22:35:43.171Z,276.67
2023-01-25T22:38:50.751Z,264.66
2023-01-25T22:41:56.881Z,254.72
2023-01-25T22:45:06.914Z,249.55
2023-01-25T22:48:12.983Z,235.47
2023-01-25T22:51:25.438Z,239.16
2023-01-25T22:54:31.930Z,242.99
2023-01-25T22:57:40.632Z,244.78
2023-01-25T23:00:49.744Z,229.61
2023-01-25T23:03:57.648Z,222.66
2023-01-25T23:07:13.108Z,211.50
2023-01-25T23:10:21.131Z,207.90
2023-01-25T23:13:27.266Z,201.91
2023-01-25T23:16:37.857Z,223.72
2023-01-25T23:19:43.619Z,219.86
2023-01-25T23:22:50.601Z,200.61
2023-01-25T23:25:58.322Z,198.33
2023-01-25T23:29:05.204Z,195.52
2023-01-25T23:32:13.901Z,195.37
2023-01-25T23:35:23.427Z,199.10
2023-01-25T23:38:29.419Z,206.73
2023-01-25T23:41:37.036Z,217.61
2023-01-25T23:44:43.068Z,220.36
2023-01-25T23:47:52.555Z,215.43
2023-01-25T23:50:59.813Z,211.37
2023-01-25T23:54:07.091Z,212.27
2023-01-25T23:57:13.206Z,219.96
